Lachine, Canada
Current Conditions -  °F | °C
As of 8:00 PM on Sunday 23 Nov 2014 (Local Time) from CYUL Reporting Station
Overcast Overcast  
Wind Chill: 40°   Ceiling: 4000
Heat Index: 43°   Visibility: 10mi
Dew Point: 39°   Wind: 5mph
Humidity: 87%   Direction: 120°ESE
Pressure: 29.99"   Gusts: NA
Location:  45.43°N, 73.68°W
Report Text: CYUL 240100Z 12004KT 10SM BKN040 OVC060 06/04 A2999 RMK SC5SC3 SLP156
Loading
Personal Weather Stations






























Interactive Weather Map New forecast layout! Learn more

10-Day Weather Forecast

Advertisements
Track Severe Weather on mobile